Time;durP1;ratioP1;P1;durP2;ratioP2;P2;SDS_P1;SDS_P2;PMS_P1;PMS_P2;Temp;Humidity;BMP_temperature;BMP_pressure;BME280_temperature;BME280_humidity;BME280_pressure;Samples;Min_cycle;Max_cycle;Signal;HPM_P1;HPM_P2
2022/11/11 00:01:13;;;;;;;2.23;2.13;;;11.30;99.90;11.30;102622.00;;;;5035507;28;20708;-80
2022/11/11 00:04:07;;;;;;;1.87;1.77;;;11.20;99.90;11.30;102606.00;;;;5034336;28;20201;-79
2022/11/11 00:07:13;;;;;;;1.23;1.23;;;11.20;99.90;11.30;102631.00;;;;5021098;28;20654;-79
2022/11/11 00:10:56;;;;;;;2.30;2.13;;;11.10;99.90;11.30;102633.00;;;;5021745;28;20193;-80
2022/11/11 00:13:52;;;;;;;1.00;1.00;;;11.10;99.90;11.80;102632.00;;;;5037534;28;20272;-79
2022/11/11 00:27:01;;;;;;;1.00;0.93;;;11.20;99.90;11.20;102613.00;;;;5034555;28;20190;-79
2022/11/11 00:30:19;;;;;;;1.10;1.07;;;11.20;99.90;11.10;102642.00;;;;5036603;28;20258;-79
2022/11/11 00:33:18;;;;;;;0.47;0.47;;;11.10;99.90;11.40;102642.00;;;;5015598;28;20217;-80
2022/11/11 00:36:23;;;;;;;2.90;1.03;;;11.10;99.90;11.10;102589.00;;;;5037953;28;20593;-80
2022/11/11 00:39:18;;;;;;;0.40;0.40;;;11.10;99.90;11.20;102580.00;;;;5042862;28;20626;-78
2022/11/11 00:42:14;;;;;;;1.10;0.77;;;11.00;99.90;11.90;102585.00;;;;5036033;28;20182;-79
2022/11/11 00:44:59;;;;;;;1.13;0.53;;;11.30;99.90;11.20;102603.00;;;;5032508;28;20233;-78
2022/11/11 00:51:32;;;;;;;0.63;0.63;;;11.00;99.90;11.40;102575.00;;;;5037434;28;20578;-79
2022/11/11 00:54:25;;;;;;;1.50;1.40;;;11.10;99.90;11.40;102628.00;;;;5024639;28;20182;-79
2022/11/11 00:57:29;;;;;;;1.87;1.77;;;11.10;99.90;11.40;102621.00;;;;5039856;28;20704;-79
2022/11/11 01:00:32;;;;;;;0.30;0.30;;;11.10;99.90;11.40;102634.00;;;;5042502;28;20188;-79
2022/11/11 01:03:26;;;;;;;2.30;2.10;;;11.10;99.90;11.20;102650.00;;;;5024730;28;20190;-79
2022/11/11 01:06:20;;;;;;;2.53;1.50;;;11.10;99.90;11.00;102645.00;;;;5033974;28;20206;-79
2022/11/11 01:08:57;;;;;;;4.60;2.63;;;11.00;99.90;11.30;102603.00;;;;5037599;28;20190;-80
2022/11/11 01:12:00;;;;;;;1.17;1.07;;;11.10;99.90;11.70;102623.00;;;;5031644;28;20211;-80
2022/11/11 01:14:48;;;;;;;3.90;2.80;;;11.20;99.90;10.90;102589.00;;;;5042598;28;20204;-80
2022/11/11 01:18:00;;;;;;;0.63;0.63;;;11.00;99.90;11.70;102652.00;;;;5051137;28;20182;-79
2022/11/11 01:20:57;;;;;;;1.03;1.03;;;11.20;99.90;11.40;102651.00;;;;4976418;28;20205;-80
2022/11/11 01:24:06;;;;;;;0.40;0.40;;;11.20;99.90;11.80;102649.00;;;;4966285;28;20192;-80
2022/11/11 01:26:51;;;;;;;0.30;0.30;;;11.30;99.90;11.70;102642.00;;;;5018355;28;20178;-80
2022/11/11 01:29:57;;;;;;;0.77;0.60;;;11.20;99.90;11.90;102653.00;;;;5029435;28;20195;-79
2022/11/11 01:32:49;;;;;;;0.57;0.57;;;11.30;99.90;11.60;102611.00;;;;5020836;28;20216;-79
2022/11/11 01:35:40;;;;;;;2.43;1.80;;;11.30;99.90;11.20;102657.00;;;;5027249;28;20191;-79
2022/11/11 01:38:29;;;;;;;0.50;0.50;;;11.10;99.90;11.60;102597.00;;;;5032099;28;20190;-79
2022/11/11 01:41:37;;;;;;;0.50;0.50;;;11.20;99.90;11.90;102596.00;;;;5003091;28;20561;-79
2022/11/11 01:44:22;;;;;;;0.70;0.70;;;11.30;99.90;11.90;102650.00;;;;5036372;28;20190;-79
2022/11/11 01:47:17;;;;;;;1.73;1.63;;;11.40;99.90;11.20;102644.00;;;;5033368;28;20189;-80
2022/11/11 01:50:44;;;;;;;1.17;1.07;;;11.20;99.90;11.20;102649.00;;;;5033659;28;20229;-77
2022/11/11 01:53:41;;;;;;;1.73;1.43;;;11.10;99.90;11.10;102634.00;;;;5033843;28;20209;-78
2022/11/11 01:56:30;;;;;;;0.73;0.73;;;11.00;99.90;11.20;102623.00;;;;5016411;28;20184;-77
2022/11/11 01:59:21;;;;;;;0.67;0.67;;;11.00;99.90;11.00;102615.00;;;;5006441;28;20204;-77
2022/11/11 02:02:37;;;;;;;0.30;0.30;;;11.00;99.90;11.30;102634.00;;;;5038112;28;20669;-77
2022/11/11 02:05:45;;;;;;;1.77;1.67;;;11.00;99.90;11.20;102621.00;;;;5029204;28;20547;-77
2022/11/11 02:08:41;;;;;;;2.63;1.37;;;11.00;99.90;11.30;102635.00;;;;5032016;28;20272;-79
2022/11/11 02:14:38;;;;;;;1.37;1.27;;;11.00;99.90;11.10;102630.00;;;;5040978;28;20218;-79
2022/11/11 02:17:30;;;;;;;0.80;0.77;;;10.90;99.90;10.90;102622.00;;;;5038709;28;20182;-79
2022/11/11 02:20:25;;;;;;;0.37;0.37;;;10.80;99.90;10.90;102623.00;;;;5041880;28;20561;-80
2022/11/11 02:24:02;;;;;;;0.47;0.47;;;10.80;99.90;11.30;102608.00;;;;5007884;28;21012;-77
2022/11/11 02:26:39;;;;;;;1.43;1.33;;;10.80;99.90;10.80;102566.00;;;;5026617;28;20173;-76
2022/11/11 02:29:29;;;;;;;0.67;0.67;;;10.80;99.90;11.10;102615.00;;;;5051186;28;20224;-76
2022/11/11 02:32:11;;;;;;;1.47;1.27;;;10.80;99.90;11.10;102607.00;;;;5026556;28;20218;-77
2022/11/11 02:35:04;;;;;;;0.97;0.80;;;10.80;99.90;11.10;102608.00;;;;5034108;28;20224;-75
2022/11/11 02:37:53;;;;;;;2.17;1.83;;;10.80;99.90;10.80;102563.00;;;;5032660;28;20202;-76
2022/11/11 02:43:52;;;;;;;3.10;2.47;;;10.70;99.90;10.60;102606.00;;;;5034889;28;20658;-76
2022/11/11 02:46:41;;;;;;;2.20;1.90;;;10.70;99.90;11.00;102598.00;;;;5029976;28;20664;-76
2022/11/11 02:49:07;;;;;;;1.37;1.27;;;10.70;99.90;10.80;102555.00;;;;5034503;28;20267;-77
2022/11/11 02:51:56;;;;;;;1.03;1.03;;;10.60;99.90;11.50;102565.00;;;;5042679;28;20305;-78
2022/11/11 02:54:59;;;;;;;1.30;1.20;;;10.90;99.90;10.60;102614.00;;;;5025933;28;20190;-78
2022/11/11 02:57:51;;;;;;;0.40;0.40;;;10.80;99.90;10.90;102557.00;;;;5026178;28;20243;-78
2022/11/11 03:00:57;;;;;;;2.63;2.47;;;10.80;99.90;10.90;102605.00;;;;5061901;28;20179;-77
2022/11/11 03:03:46;;;;;;;2.77;1.40;;;10.70;99.90;10.90;102607.00;;;;5009321;28;20195;-79
2022/11/11 03:06:39;;;;;;;0.90;0.90;;;10.70;99.90;10.80;102588.00;;;;5039323;28;20230;-77
2022/11/11 03:09:31;;;;;;;1.47;1.17;;;10.70;99.90;10.90;102588.00;;;;5023933;28;20273;-77
2022/11/11 03:12:20;;;;;;;1.43;1.33;;;10.70;99.90;11.20;102576.00;;;;5046314;28;20198;-77
2022/11/11 03:15:02;;;;;;;1.20;1.10;;;10.80;99.90;11.00;102623.00;;;;5024598;28;20583;-77
2022/11/11 03:18:17;;;;;;;1.17;1.17;;;10.80;99.90;10.80;102610.00;;;;5038169;28;20245;-77
2022/11/11 03:21:11;;;;;;;1.50;1.27;;;10.70;99.90;11.10;102623.00;;;;5010986;28;20235;-78
2022/11/11 03:24:06;;;;;;;0.40;0.40;;;10.70;99.90;11.10;102619.00;;;;5013326;28;20300;-78
2022/11/11 03:27:10;;;;;;;0.50;0.50;;;10.70;99.90;10.90;102624.00;;;;5011447;28;20605;-78
2022/11/11 03:30:11;;;;;;;0.30;0.30;;;10.70;99.90;11.00;102579.00;;;;5029692;28;20202;-77
2022/11/11 03:33:02;;;;;;;0.60;0.60;;;10.70;99.90;11.10;102621.00;;;;5024657;28;20254;-78
2022/11/11 03:36:09;;;;;;;0.63;0.63;;;10.80;99.90;10.90;102611.00;;;;5010560;28;20207;-77
2022/11/11 03:39:20;;;;;;;0.50;0.50;;;10.60;99.90;10.70;102628.00;;;;5022516;28;20209;-78
2022/11/11 03:42:31;;;;;;;2.43;2.27;;;10.60;99.90;10.90;102624.00;;;;5035566;28;20203;-78
2022/11/11 03:45:48;;;;;;;6.23;2.83;;;10.60;99.90;11.10;102624.00;;;;5034477;28;20193;-78
2022/11/11 03:48:58;;;;;;;1.43;1.37;;;10.70;99.90;10.90;102629.00;;;;5007508;28;20238;-78
2022/11/11 03:51:53;;;;;;;0.70;0.70;;;10.80;99.90;10.90;102612.00;;;;5000436;28;20289;-78
2022/11/11 03:54:49;;;;;;;0.37;0.37;;;10.70;99.90;11.20;102621.00;;;;5021338;28;20282;-78
2022/11/11 03:57:45;;;;;;;0.40;0.40;;;10.70;99.90;11.10;102631.00;;;;5022285;28;20285;-78
2022/11/11 04:00:36;;;;;;;0.50;0.50;;;10.70;99.90;10.80;102622.00;;;;4996132;28;20205;-78
2022/11/11 04:10:42;;;;;;;3.10;1.90;;;10.40;99.90;10.50;102569.00;;;;4975738;28;20191;-77
2022/11/11 04:16:44;;;;;;;1.80;1.70;;;10.40;99.90;10.40;102614.00;;;;4979690;28;20200;-77
2022/11/11 04:22:55;;;;;;;0.80;0.80;;;10.40;99.90;10.40;102611.00;;;;4963411;28;20234;-77
2022/11/11 04:25:52;;;;;;;1.30;0.50;;;10.30;99.90;10.50;102617.00;;;;4953995;28;20254;-77
2022/11/11 04:35:30;;;;;;;0.90;0.90;;;10.30;99.90;10.60;102614.00;;;;5018069;28;20253;-78
2022/11/11 04:41:35;;;;;;;1.17;1.07;;;10.40;99.90;10.60;102597.00;;;;5039714;28;20234;-77
2022/11/11 04:47:35;;;;;;;2.73;1.83;;;10.40;99.90;10.60;102621.00;;;;5022887;28;20658;-76
2022/11/11 04:50:40;;;;;;;0.93;0.93;;;10.40;99.90;10.30;102629.00;;;;5027632;28;20615;-76
2022/11/11 04:53:37;;;;;;;2.37;2.17;;;10.30;99.90;10.10;102628.00;;;;5023263;28;20270;-76
2022/11/11 05:00:01;;;;;;;1.77;1.23;;;10.20;99.90;10.40;102639.00;;;;5051895;28;20275;-79
2022/11/11 05:05:12;;;;;;;2.40;0.80;;;10.20;99.90;10.40;102628.00;;;;5037439;28;20217;-78
2022/11/11 05:10:24;;;;;;;3.80;1.80;;;10.20;99.90;10.20;102622.00;;;;5040879;28;20616;-78
2022/11/11 05:12:53;;;;;;;1.77;1.67;;;10.10;99.90;10.40;102635.00;;;;5022622;28;20203;-77
2022/11/11 05:26:20;;;;;;;4.97;4.53;;;10.20;99.90;10.30;102638.00;;;;5034800;28;20207;-79
2022/11/11 05:28:50;;;;;;;1.80;1.67;;;10.20;99.90;10.20;102648.00;;;;5053008;28;20195;-78
2022/11/11 05:31:18;;;;;;;0.30;0.30;;;10.10;99.90;10.00;102644.00;;;;5048250;28;20187;-78
2022/11/11 05:33:55;;;;;;;1.13;1.10;;;10.10;99.90;10.30;102663.00;;;;5051610;28;20185;-79
2022/11/11 05:36:22;;;;;;;2.33;2.13;;;10.10;99.90;10.30;102628.00;;;;5047964;28;20232;-79
2022/11/11 05:38:48;;;;;;;0.50;0.50;;;10.20;99.90;10.20;102661.00;;;;5041862;28;20252;-78
2022/11/11 05:41:20;;;;;;;0.90;0.90;;;10.10;99.90;10.30;102615.00;;;;5045771;28;20644;-79
2022/11/11 05:43:51;;;;;;;0.97;0.97;;;10.10;99.90;10.30;102642.00;;;;5047911;28;20175;-78
2022/11/11 05:46:17;;;;;;;0.80;0.80;;;10.10;99.90;10.30;102633.00;;;;5051747;28;20648;-78
2022/11/11 05:51:30;;;;;;;0.73;0.73;;;10.20;99.90;10.30;102658.00;;;;5035106;28;20229;-78
2022/11/11 05:53:57;;;;;;;1.57;1.47;;;10.20;99.90;10.20;102656.00;;;;5040711;28;20190;-78
2022/11/11 05:56:23;;;;;;;0.90;0.90;;;10.10;99.90;10.10;102661.00;;;;5037093;28;20189;-78
2022/11/11 05:58:49;;;;;;;1.77;1.67;;;10.00;99.90;10.70;102631.00;;;;5044907;28;20285;-78
2022/11/11 06:01:15;;;;;;;0.33;0.33;;;10.20;99.90;10.50;102586.00;;;;5018708;28;20716;-79
2022/11/11 06:03:41;;;;;;;0.30;0.30;;;10.20;99.90;10.30;102666.00;;;;5040595;28;20263;-78
2022/11/11 06:06:07;;;;;;;0.57;0.57;;;10.20;99.90;10.40;102611.00;;;;5033857;28;20194;-79
2022/11/11 06:08:33;;;;;;;0.30;0.30;;;10.20;99.90;10.30;102668.00;;;;5067261;28;20189;-78
2022/11/11 06:10:58;;;;;;;1.03;1.03;;;10.10;99.90;9.80;102640.00;;;;5047722;28;20650;-78
2022/11/11 06:13:24;;;;;;;1.07;0.97;;;10.00;99.90;9.70;102666.00;;;;5047497;28;20241;-78
2022/11/11 06:15:50;;;;;;;0.70;0.70;;;9.80;99.90;10.00;102662.00;;;;5050835;28;20188;-79
2022/11/11 06:18:18;;;;;;;2.77;2.17;;;9.90;99.90;9.90;102668.00;;;;5046635;28;20181;-79
2022/11/11 06:20:44;;;;;;;2.33;2.23;;;9.90;99.90;10.10;102661.00;;;;5047983;28;20637;-79
2022/11/11 06:23:13;;;;;;;0.63;0.63;;;9.90;99.90;9.90;102655.00;;;;5047209;28;20192;-78
2022/11/11 06:28:31;;;;;;;0.70;0.70;;;9.80;99.90;9.90;102659.00;;;;5049570;28;20241;-77
2022/11/11 06:30:57;;;;;;;1.87;1.53;;;9.80;99.90;9.90;102653.00;;;;5030029;28;20178;-77
2022/11/11 06:33:23;;;;;;;4.20;1.17;;;9.80;99.90;9.60;102648.00;;;;5019483;28;20219;-77
2022/11/11 06:35:52;;;;;;;0.80;0.80;;;9.70;99.90;9.60;102673.00;;;;5040167;28;20262;-77
2022/11/11 06:38:19;;;;;;;1.23;0.63;;;9.70;99.90;10.00;102683.00;;;;5041212;28;20524;-77
2022/11/11 06:40:50;;;;;;;1.90;1.57;;;9.70;99.90;10.00;102677.00;;;;5045281;28;20184;-77
2022/11/11 06:43:16;;;;;;;0.93;0.87;;;9.80;99.90;9.90;102672.00;;;;5044231;28;20240;-77
2022/11/11 06:45:45;;;;;;;1.97;1.80;;;9.70;99.90;10.10;102672.00;;;;5037213;28;20221;-77
2022/11/11 06:48:11;;;;;;;0.73;0.73;;;9.80;99.90;10.10;102681.00;;;;5042828;28;20188;-77
2022/11/11 06:50:39;;;;;;;0.53;0.53;;;9.90;99.90;10.30;102685.00;;;;5037771;28;20717;-78
2022/11/11 06:53:10;;;;;;;1.13;1.13;;;9.90;99.90;10.30;102682.00;;;;5022539;28;20292;-78
2022/11/11 06:55:42;;;;;;;2.33;2.07;;;10.10;99.90;10.20;102704.00;;;;5034134;28;20655;-78
2022/11/11 06:58:17;;;;;;;2.60;2.40;;;10.10;99.90;9.80;102685.00;;;;5017801;28;20190;-78
2022/11/11 07:00:45;;;;;;;0.60;0.60;;;9.90;99.90;10.00;102700.00;;;;5024540;28;20187;-76
2022/11/11 07:03:20;;;;;;;3.20;1.23;;;9.90;99.90;10.40;102711.00;;;;5037443;28;20194;-76
2022/11/11 07:05:54;;;;;;;0.63;0.40;;;10.00;99.90;10.20;102699.00;;;;5043092;28;20695;-76
2022/11/11 07:08:20;;;;;;;0.50;0.50;;;10.00;99.90;10.10;102713.00;;;;5043222;28;20321;-76
2022/11/11 07:10:47;;;;;;;2.53;2.33;;;9.90;99.90;10.00;102721.00;;;;5048344;28;20273;-76
2022/11/11 07:13:15;;;;;;;1.30;1.30;;;9.80;99.90;9.90;102715.00;;;;5030957;28;20307;-76
2022/11/11 07:15:47;;;;;;;0.80;0.80;;;9.80;99.90;9.90;102722.00;;;;5041813;28;20187;-77
2022/11/11 07:18:13;;;;;;;1.47;1.37;;;9.70;99.90;9.90;102685.00;;;;5042353;28;20182;-76
2022/11/11 07:20:42;;;;;;;0.40;0.40;;;9.70;99.90;9.80;102701.00;;;;5045336;28;20186;-77
2022/11/11 07:23:11;;;;;;;1.87;1.77;;;9.70;99.90;9.40;102729.00;;;;5038023;28;20176;-77
2022/11/11 07:25:39;;;;;;;2.77;2.30;;;9.60;99.90;9.70;102711.00;;;;5046454;28;20174;-76
2022/11/11 07:28:08;;;;;;;3.90;2.00;;;9.60;99.90;9.70;102710.00;;;;5029418;28;20211;-78
2022/11/11 07:30:37;;;;;;;1.57;1.40;;;9.60;99.90;9.50;102682.00;;;;5056872;28;20211;-78
2022/11/11 07:33:02;;;;;;;1.33;1.23;;;9.50;99.90;9.50;102700.00;;;;5029076;28;20222;-77
2022/11/11 07:35:31;;;;;;;1.67;1.57;;;9.60;99.90;9.80;102706.00;;;;5050079;28;20189;-77
2022/11/11 07:37:57;;;;;;;1.03;0.93;;;9.70;99.90;9.60;102748.00;;;;5047971;28;20655;-77
2022/11/11 07:40:26;;;;;;;1.80;1.03;;;9.60;99.90;10.00;102751.00;;;;5044218;28;20521;-77
2022/11/11 07:43:02;;;;;;;0.50;0.50;;;9.60;99.90;9.80;102699.00;;;;5024362;28;20190;-77
2022/11/11 07:45:28;;;;;;;0.40;0.40;;;9.70;99.90;9.50;102722.00;;;;5066181;28;20273;-77
2022/11/11 07:47:54;;;;;;;0.30;0.30;;;9.60;99.90;9.80;102720.00;;;;5049957;28;20279;-76
2022/11/11 07:50:20;;;;;;;0.60;0.60;;;9.60;99.90;9.90;102719.00;;;;5050386;28;20197;-77
2022/11/11 07:52:49;;;;;;;0.40;0.37;;;9.60;99.90;9.90;102665.00;;;;5046624;28;20206;-76
2022/11/11 07:55:26;;;;;;;1.10;1.07;;;9.70;99.90;10.10;102722.00;;;;5045978;28;20324;-76
2022/11/11 07:57:52;;;;;;;2.17;1.90;;;9.70;99.90;9.50;102730.00;;;;5032914;28;20191;-77
2022/11/11 08:00:18;;;;;;;3.37;3.07;;;9.60;99.90;9.50;102730.00;;;;5042708;28;20182;-76
2022/11/11 08:02:53;;;;;;;1.27;0.80;;;9.50;99.90;9.50;102733.00;;;;5023174;28;20205;-77
2022/11/11 08:05:34;;;;;;;2.40;2.30;;;9.50;99.90;9.50;102715.00;;;;5037340;28;20656;-77
2022/11/11 08:08:28;;;;;;;0.90;0.87;;;9.60;99.90;9.60;102684.00;;;;5017250;28;20977;-79
2022/11/11 08:11:00;;;;;;;1.80;1.13;;;9.50;99.90;10.00;102740.00;;;;5051958;28;20676;-80
2022/11/11 08:13:43;;;;;;;3.57;3.33;;;9.60;99.90;10.00;102681.00;;;;5046873;28;20575;-80
2022/11/11 08:16:17;;;;;;;0.30;0.30;;;9.70;99.90;10.00;102577.00;;;;5022455;28;20641;-80
2022/11/11 08:18:48;;;;;;;0.87;0.87;;;9.80;99.90;10.00;102728.00;;;;5054136;28;20222;-80
2022/11/11 08:21:21;;;;;;;1.20;0.50;;;9.80;99.90;9.60;102742.00;;;;5024119;28;20631;-81
2022/11/11 08:23:47;;;;;;;1.00;0.67;;;9.70;99.90;9.80;102746.00;;;;5041360;28;20646;-77
2022/11/11 08:26:13;;;;;;;1.93;1.83;;;9.70;99.90;10.00;102700.00;;;;5046325;28;20194;-78
2022/11/11 08:28:57;;;;;;;0.30;0.30;;;9.80;99.90;10.00;102767.00;;;;5046720;28;20264;-78
2022/11/11 08:31:22;;;;;;;1.47;1.37;;;9.80;99.90;10.10;102756.00;;;;5020129;28;20197;-78
2022/11/11 08:33:49;;;;;;;7.27;1.87;;;9.90;99.90;10.20;102762.00;;;;5040523;28;20188;-78
2022/11/11 08:36:14;;;;;;;0.33;0.33;;;10.00;99.90;10.20;102703.00;;;;5020967;28;20690;-78
2022/11/11 08:39:07;;;;;;;0.23;0.23;;;10.00;99.90;10.70;102765.00;;;;5049461;28;20184;-78
2022/11/11 08:41:48;;;;;;;1.63;1.53;;;10.20;99.90;10.80;102736.00;;;;5043220;28;20548;-78
2022/11/11 08:44:35;;;;;;;0.80;0.80;;;10.30;99.90;10.20;102750.00;;;;5049967;28;20574;-78
2022/11/11 08:47:01;;;;;;;1.13;1.13;;;10.20;99.90;10.00;102750.00;;;;5050069;28;20186;-78
2022/11/11 08:49:50;;;;;;;1.80;1.80;;;10.00;99.90;10.20;102760.00;;;;5047789;28;20210;-78
2022/11/11 08:52:16;;;;;;;0.27;0.27;;;10.00;99.90;10.30;102722.00;;;;5028631;28;20209;-78
2022/11/11 08:54:48;;;;;;;0.50;0.50;;;10.10;99.90;9.90;102756.00;;;;5022277;28;20698;-78
2022/11/11 08:57:14;;;;;;;1.27;0.73;;;10.00;99.90;10.60;102733.00;;;;5040995;28;20196;-78
2022/11/11 08:59:39;;;;;;;0.80;0.80;;;10.20;99.90;10.60;102692.00;;;;5035753;28;20191;-78
2022/11/11 09:02:11;;;;;;;2.00;1.47;;;10.30;99.90;10.00;102585.00;;;;5039063;28;20199;-77
2022/11/11 09:04:46;;;;;;;0.27;0.27;;;10.10;99.90;10.30;102745.00;;;;5042316;28;20652;-76
2022/11/11 09:07:17;;;;;;;0.30;0.30;;;10.20;99.90;10.60;102760.00;;;;5036961;28;20184;-76
2022/11/11 09:09:53;;;;;;;1.87;1.67;;;10.20;99.90;10.30;102766.00;;;;5041846;28;20244;-78
2022/11/11 09:12:19;;;;;;;1.13;1.13;;;10.30;99.90;10.70;102770.00;;;;5039278;28;20207;-78
2022/11/11 09:14:50;;;;;;;0.30;0.30;;;10.40;99.90;10.90;102747.00;;;;5039744;28;20183;-78
2022/11/11 09:17:19;;;;;;;0.70;0.70;;;10.50;99.90;10.10;102696.00;;;;5022443;28;20554;-80
2022/11/11 09:19:45;;;;;;;0.57;0.57;;;10.20;99.90;10.30;102772.00;;;;5048409;28;20193;-76
2022/11/11 09:22:11;;;;;;;1.17;1.07;;;10.20;99.90;10.50;102766.00;;;;5031301;28;20569;-78
2022/11/11 09:24:36;;;;;;;0.90;0.90;;;10.30;99.90;10.20;102767.00;;;;5052142;28;20265;-80
2022/11/11 09:27:05;;;;;;;1.40;1.30;;;10.30;99.90;10.50;102781.00;;;;5021947;28;20180;-62
2022/11/11 09:29:49;;;;;;;0.53;0.53;;;10.40;99.90;10.50;102756.00;;;;5032592;28;20269;-77
2022/11/11 09:32:15;;;;;;;0.33;0.33;;;10.40;99.90;10.70;102772.00;;;;5009779;28;20237;-77
2022/11/11 09:34:46;;;;;;;0.83;0.60;;;10.40;99.90;10.50;102766.00;;;;5035157;28;20644;-79
2022/11/11 09:37:11;;;;;;;0.60;0.60;;;10.50;99.90;10.60;102774.00;;;;5033124;28;20184;-77
2022/11/11 09:39:48;;;;;;;0.43;0.43;;;10.40;99.90;11.20;102774.00;;;;5035151;28;20182;-78
2022/11/11 09:42:39;;;;;;;0.20;0.20;;;10.70;99.90;11.70;102777.00;;;;5027406;28;20194;-78
2022/11/11 09:45:49;;;;;;;1.10;1.10;;;10.90;99.90;10.60;102793.00;;;;5030630;28;20291;-78
2022/11/11 09:48:43;;;;;;;2.07;1.63;;;10.80;99.90;10.10;102748.00;;;;5030919;28;20211;-77
2022/11/11 09:51:46;;;;;;;0.20;0.20;;;10.60;99.90;11.50;102792.00;;;;5033891;28;20188;-78
2022/11/11 09:54:34;;;;;;;0.40;0.40;;;10.80;99.90;11.20;102778.00;;;;5037945;28;20282;-78
2022/11/11 09:57:13;;;;;;;0.60;0.60;;;11.00;99.90;11.40;102730.00;;;;5033455;28;20181;-78
2022/11/11 09:59:52;;;;;;;0.30;0.30;;;11.10;99.90;11.40;102754.00;;;;5037028;28;20637;-77
2022/11/11 10:03:10;;;;;;;0.20;0.20;;;11.10;99.90;12.90;102784.00;;;;5029018;28;20547;-78
2022/11/11 10:05:55;;;;;;;2.90;2.70;;;11.70;99.90;11.90;102732.00;;;;5023815;28;20192;-78
2022/11/11 10:08:41;;;;;;;3.90;1.37;;;11.80;99.90;11.70;102775.00;;;;5063432;28;20211;-78
2022/11/11 10:12:07;;;;;;;2.63;1.07;;;11.50;99.90;11.50;102766.00;;;;5045611;28;20583;-76
2022/11/11 10:14:38;;;;;;;0.50;0.50;;;11.30;99.90;11.30;102767.00;;;;4986240;28;20354;-79
2022/11/11 10:17:22;;;;;;;0.30;0.30;;;11.40;99.90;11.70;102758.00;;;;5047977;28;20661;-79
2022/11/11 10:20:02;;;;;;;0.27;0.27;;;11.50;99.90;11.70;102794.00;;;;5033382;28;20241;-78
2022/11/11 10:34:04;;;;;;;0.50;0.50;;;11.60;99.90;12.00;102774.00;;;;5090049;27;20980;-75
2022/11/11 10:36:30;;;;;;;1.03;0.93;;;11.90;99.90;12.10;102771.00;;;;5059815;28;20192;-75
2022/11/11 10:38:59;;;;;;;1.70;1.60;;;12.10;99.90;11.80;102787.00;;;;5069120;28;20258;-74
2022/11/11 10:41:40;;;;;;;0.40;0.40;;;11.80;99.90;11.90;102746.00;;;;5067673;28;20198;-61
2022/11/11 10:44:30;;;;;;;1.13;0.87;;;11.80;99.90;13.50;102790.00;;;;5068641;28;20273;-68
2022/11/11 10:47:19;;;;;;;4.53;1.03;;;12.60;99.90;14.50;102808.00;;;;5082537;28;20193;-69
2022/11/11 10:50:16;;;;;;;0.47;0.47;;;13.40;99.90;14.40;102818.00;;;;5070191;28;20301;-68
2022/11/11 10:53:04;;;;;;;0.20;0.20;;;13.70;99.90;14.20;102811.00;;;;5076828;28;20206;-69
2022/11/11 10:55:42;;;;;;;0.23;0.23;;;13.70;99.90;13.70;102820.00;;;;5064449;28;20235;-68
2022/11/11 10:58:45;;;;;;;0.20;0.20;;;13.50;99.90;13.50;102766.00;;;;5067015;28;20242;-68
2022/11/11 11:01:44;;;;;;;1.13;0.77;;;13.10;99.90;13.40;102764.00;;;;5067860;28;20188;-68
2022/11/11 11:04:47;;;;;;;0.57;0.47;;;13.40;99.90;13.90;102803.00;;;;5051810;28;20622;-68
2022/11/11 11:07:39;;;;;;;0.47;0.47;;;13.20;99.90;15.40;102812.00;;;;5069833;28;20698;-68
2022/11/11 11:10:25;;;;;;;0.93;0.40;;;14.10;99.90;14.70;102807.00;;;;5061639;28;20188;-70
2022/11/11 11:13:21;;;;;;;0.40;0.40;;;14.30;99.90;14.10;102797.00;;;;5050177;28;20211;-69
2022/11/11 11:15:56;;;;;;;1.13;1.13;;;14.10;99.90;14.50;102798.00;;;;5065293;28;20246;-69
2022/11/11 11:18:27;;;;;;;0.10;0.10;;;13.90;99.90;15.60;102784.00;;;;5068441;28;20191;-70
2022/11/11 11:20:59;;;;;;;0.20;0.20;;;14.50;99.90;15.30;102798.00;;;;5069488;28;20262;-69
2022/11/11 11:23:42;;;;;;;0.40;0.40;;;14.60;99.90;15.40;102805.00;;;;5051390;28;20196;-69
2022/11/11 11:26:18;;;;;;;5.33;2.80;;;14.80;99.90;15.50;102809.00;;;;5068143;28;20180;-68
2022/11/11 11:28:56;;;;;;;1.00;1.00;;;14.80;99.90;14.90;102811.00;;;;5068855;28;20183;-68
2022/11/11 11:31:39;;;;;;;0.70;0.70;;;14.60;99.90;14.40;102808.00;;;;5056307;28;20227;-68
2022/11/11 11:34:06;;;;;;;0.33;0.33;;;14.40;99.90;14.70;102784.00;;;;5067758;28;20288;-68
2022/11/11 11:36:35;;;;;;;1.80;0.87;;;14.30;99.90;14.20;102804.00;;;;5068136;28;20187;-68
2022/11/11 11:39:01;;;;;;;0.33;0.33;;;14.10;99.90;14.30;102781.00;;;;5067683;28;20189;-69
2022/11/11 11:41:50;;;;;;;0.87;0.60;;;13.90;99.90;14.40;102792.00;;;;5066195;28;20302;-69
2022/11/11 11:44:35;;;;;;;0.20;0.20;;;14.10;99.90;14.30;102795.00;;;;5057520;28;20180;-69
2022/11/11 11:47:50;;;;;;;0.87;0.77;;;14.10;99.90;14.90;102804.00;;;;5054590;28;20177;-69
2022/11/11 11:50:32;;;;;;;0.10;0.10;;;14.40;99.90;14.80;102793.00;;;;5033810;28;20190;-69
2022/11/11 11:53:04;;;;;;;0.63;0.63;;;14.20;99.90;14.40;102749.00;;;;5043429;28;20239;-69
2022/11/11 11:55:45;;;;;;;2.67;1.40;;;14.10;99.90;14.60;102793.00;;;;5055028;28;20184;-69
2022/11/11 11:58:43;;;;;;;0.60;0.60;;;14.20;99.90;14.40;102749.00;;;;5034395;28;20705;-69
2022/11/11 12:01:54;;;;;;;0.23;0.23;;;14.20;99.90;14.50;102798.00;;;;5032633;28;20190;-69
2022/11/11 12:05:04;;;;;;;1.07;0.93;;;14.20;99.90;14.20;102793.00;;;;5054820;28;20215;-68
2022/11/11 12:07:58;;;;;;;2.63;1.27;;;14.20;99.90;14.60;102796.00;;;;5049543;28;20196;-68
2022/11/11 12:10:48;;;;;;;1.57;1.03;;;14.20;99.90;15.60;102803.00;;;;5069473;28;20187;-68
2022/11/11 12:13:54;;;;;;;0.60;0.60;;;14.50;99.90;14.50;102793.00;;;;5054935;28;20229;-68
2022/11/11 12:16:42;;;;;;;2.70;1.13;;;14.30;99.90;15.60;102807.00;;;;5054919;28;20191;-68
2022/11/11 12:19:33;;;;;;;0.63;0.63;;;14.60;99.90;15.30;102755.00;;;;5053831;28;20200;-68
2022/11/11 12:22:20;;;;;;;0.83;0.83;;;14.70;99.90;15.30;102756.00;;;;5059155;28;20273;-68
2022/11/11 12:25:13;;;;;;;1.23;1.13;;;14.70;99.90;14.90;102775.00;;;;5044251;28;20271;-68
2022/11/11 12:28:16;;;;;;;0.20;0.20;;;14.60;99.90;14.60;102788.00;;;;5070082;28;20673;-68
2022/11/11 12:30:56;;;;;;;0.20;0.20;;;14.40;99.90;14.50;102783.00;;;;5053267;28;20284;-68
2022/11/11 12:34:04;;;;;;;0.73;0.73;;;14.10;99.90;14.40;102779.00;;;;5053683;28;20222;-68
2022/11/11 12:36:42;;;;;;;0.73;0.73;;;14.20;99.90;14.90;102773.00;;;;5061191;28;20191;-68
2022/11/11 12:39:29;;;;;;;0.50;0.50;;;14.10;99.90;15.70;102799.00;;;;5051991;28;20192;-69
2022/11/11 12:42:44;;;;;;;1.10;0.83;;;14.60;99.90;14.80;102776.00;;;;5054016;28;20294;-68
2022/11/11 12:45:48;;;;;;;0.50;0.50;;;14.50;99.90;15.30;102779.00;;;;5042501;28;20297;-68
2022/11/11 12:48:53;;;;;;;2.23;0.67;;;14.50;99.90;14.90;102776.00;;;;5039672;28;20652;-68
2022/11/11 12:51:41;;;;;;;0.90;0.50;;;14.50;99.90;14.20;102774.00;;;;5050460;28;20226;-68
2022/11/11 12:54:26;;;;;;;1.40;0.87;;;14.10;99.90;14.30;102772.00;;;;5048009;28;20180;-68
2022/11/11 12:57:40;;;;;;;0.20;0.20;;;14.10;99.90;14.90;102762.00;;;;5050643;28;20188;-67
2022/11/11 13:00:19;;;;;;;0.20;0.20;;;14.20;99.90;15.80;102785.00;;;;5065518;28;20193;-68
2022/11/11 13:03:16;;;;;;;0.20;0.20;;;14.70;99.90;14.70;102749.00;;;;5047070;28;20543;-68
2022/11/11 13:06:03;;;;;;;0.30;0.30;;;14.50;99.90;15.10;102739.00;;;;5053142;28;20212;-68
2022/11/11 13:09:02;;;;;;;2.93;0.40;;;14.50;99.90;14.30;102767.00;;;;5047994;28;20182;-68
2022/11/11 13:11:59;;;;;;;0.20;0.20;;;14.20;99.90;15.20;102777.00;;;;5052666;28;20249;-68
2022/11/11 13:15:10;;;;;;;0.20;0.20;;;14.40;99.90;15.40;102777.00;;;;5067869;28;20242;-67
2022/11/11 13:17:39;;;;;;;0.53;0.53;;;14.50;99.90;15.60;102780.00;;;;5059100;28;20574;-68
2022/11/11 13:20:44;;;;;;;0.20;0.20;;;14.80;99.90;16.20;102795.00;;;;5036092;28;20579;-68
2022/11/11 13:23:11;;;;;;;0.50;0.50;;;15.10;99.90;15.50;102785.00;;;;5052497;28;20182;-68
2022/11/11 13:26:03;;;;;;;0.53;0.50;;;14.90;99.90;15.80;102792.00;;;;5052565;28;20182;-68
2022/11/11 13:28:40;;;;;;;0.30;0.30;;;14.90;99.90;15.60;102786.00;;;;5052548;28;20232;-68